< < Back
Terminal Aerodrome Forecast


Current Version              Previous Versions:   1  2  3  4  5  6  7  8  9  

Terminal Aerodrome Forecast

019
FTUS44 KMOB 011754
TAFPNS
TAF
KPNS 011754Z 0118/0218 12004KT P6SM SCT250
     FM012000 07008KT P6SM VCTS SCT030CB SCT250
     FM020300 36005KT P6SM SCT250=



Latest METAR

856
SAUS70 KWBC 021200 RRL
MTRPNS
METAR KPNS 021153Z 36006KT 10SM CLR 24/22 A2986 RMK AO2 SLP113 70062
T02440222 10256 20239 51012


USA.gov is the U.S. government's official web portal to all federal, state and local government web resources and services.